sensor_id;sensor_type;location;lat;lon;timestamp;P1;durP1;ratioP1;P2;durP2;ratioP2
11500;SDS011;5807;51.606;7.624;2022-10-14T00:01:32;25.17;;;18.13;;
11500;SDS011;5807;51.606;7.624;2022-10-14T00:03:59;27.13;;;18.97;;
11500;SDS011;5807;51.606;7.624;2022-10-14T00:06:27;23.33;;;17.10;;
11500;SDS011;5807;51.606;7.624;2022-10-14T00:08:55;25.60;;;17.93;;
11500;SDS011;5807;51.606;7.624;2022-10-14T00:11:27;27.23;;;18.27;;
11500;SDS011;5807;51.606;7.624;2022-10-14T00:13:56;29.63;;;18.43;;
11500;SDS011;5807;51.606;7.624;2022-10-14T00:16:24;27.53;;;17.30;;
11500;SDS011;5807;51.606;7.624;2022-10-14T00:18:52;29.70;;;19.33;;
11500;SDS011;5807;51.606;7.624;2022-10-14T00:21:20;25.03;;;18.20;;
11500;SDS011;5807;51.606;7.624;2022-10-14T00:23:46;21.37;;;16.77;;
11500;SDS011;5807;51.606;7.624;2022-10-14T00:26:14;28.63;;;18.37;;
11500;SDS011;5807;51.606;7.624;2022-10-14T00:28:44;27.20;;;18.47;;
11500;SDS011;5807;51.606;7.624;2022-10-14T00:31:11;26.13;;;19.20;;
11500;SDS011;5807;51.606;7.624;2022-10-14T00:33:38;30.40;;;19.37;;
11500;SDS011;5807;51.606;7.624;2022-10-14T00:36:05;29.70;;;18.43;;
11500;SDS011;5807;51.606;7.624;2022-10-14T00:38:33;30.53;;;19.80;;
11500;SDS011;5807;51.606;7.624;2022-10-14T00:41:01;33.70;;;15.00;;
11500;SDS011;5807;51.606;7.624;2022-10-14T00:43:28;25.53;;;18.13;;
11500;SDS011;5807;51.606;7.624;2022-10-14T00:46:16;28.60;;;18.57;;
11500;SDS011;5807;51.606;7.624;2022-10-14T00:48:43;23.97;;;16.57;;
11500;SDS011;5807;51.606;7.624;2022-10-14T00:51:10;29.10;;;18.10;;
11500;SDS011;5807;51.606;7.624;2022-10-14T00:53:37;27.63;;;17.37;;
11500;SDS011;5807;51.606;7.624;2022-10-14T00:56:07;26.27;;;18.57;;
11500;SDS011;5807;51.606;7.624;2022-10-14T00:58:35;32.00;;;19.00;;
11500;SDS011;5807;51.606;7.624;2022-10-14T01:01:02;29.40;;;18.57;;
11500;SDS011;5807;51.606;7.624;2022-10-14T01:03:32;29.20;;;19.37;;
11500;SDS011;5807;51.606;7.624;2022-10-14T01:06:00;29.77;;;19.40;;
11500;SDS011;5807;51.606;7.624;2022-10-14T01:08:33;28.37;;;19.33;;
11500;SDS011;5807;51.606;7.624;2022-10-14T01:11:09;28.33;;;19.03;;
11500;SDS011;5807;51.606;7.624;2022-10-14T01:13:42;30.03;;;19.77;;
11500;SDS011;5807;51.606;7.624;2022-10-14T01:16:15;28.27;;;18.63;;
11500;SDS011;5807;51.606;7.624;2022-10-14T01:18:59;23.10;;;17.13;;
11500;SDS011;5807;51.606;7.624;2022-10-14T01:21:35;29.97;;;19.00;;
11500;SDS011;5807;51.606;7.624;2022-10-14T01:24:09;28.70;;;19.93;;
11500;SDS011;5807;51.606;7.624;2022-10-14T01:26:55;33.67;;;19.50;;
11500;SDS011;5807;51.606;7.624;2022-10-14T01:32:29;30.03;;;18.70;;
11500;SDS011;5807;51.606;7.624;2022-10-14T01:34:59;30.33;;;18.37;;
11500;SDS011;5807;51.606;7.624;2022-10-14T01:37:31;30.33;;;17.90;;
11500;SDS011;5807;51.606;7.624;2022-10-14T01:40:02;24.23;;;18.50;;
11500;SDS011;5807;51.606;7.624;2022-10-14T01:42:34;27.20;;;18.80;;
11500;SDS011;5807;51.606;7.624;2022-10-14T01:45:07;23.53;;;17.80;;
11500;SDS011;5807;51.606;7.624;2022-10-14T01:47:37;26.97;;;18.30;;
11500;SDS011;5807;51.606;7.624;2022-10-14T01:50:08;25.77;;;18.07;;
11500;SDS011;5807;51.606;7.624;2022-10-14T01:52:39;23.83;;;18.63;;
11500;SDS011;5807;51.606;7.624;2022-10-14T01:55:11;26.40;;;19.40;;
11500;SDS011;5807;51.606;7.624;2022-10-14T01:57:43;29.37;;;19.07;;
11500;SDS011;5807;51.606;7.624;2022-10-14T02:00:13;29.33;;;19.90;;
11500;SDS011;5807;51.606;7.624;2022-10-14T02:02:40;28.93;;;19.93;;
11500;SDS011;5807;51.606;7.624;2022-10-14T02:05:09;28.30;;;19.30;;
11500;SDS011;5807;51.606;7.624;2022-10-14T02:07:41;30.43;;;18.50;;
11500;SDS011;5807;51.606;7.624;2022-10-14T02:10:12;28.37;;;19.43;;
11500;SDS011;5807;51.606;7.624;2022-10-14T02:12:49;26.83;;;18.13;;
11500;SDS011;5807;51.606;7.624;2022-10-14T02:15:28;25.43;;;18.07;;
11500;SDS011;5807;51.606;7.624;2022-10-14T02:18:00;30.23;;;20.77;;
11500;SDS011;5807;51.606;7.624;2022-10-14T02:20:32;26.87;;;19.40;;
11500;SDS011;5807;51.606;7.624;2022-10-14T02:23:03;27.50;;;18.47;;
11500;SDS011;5807;51.606;7.624;2022-10-14T02:25:36;26.33;;;19.07;;
11500;SDS011;5807;51.606;7.624;2022-10-14T02:28:06;32.10;;;19.47;;
11500;SDS011;5807;51.606;7.624;2022-10-14T02:30:50;26.60;;;19.97;;
11500;SDS011;5807;51.606;7.624;2022-10-14T02:33:21;30.17;;;18.50;;
11500;SDS011;5807;51.606;7.624;2022-10-14T02:35:51;33.40;;;20.03;;
11500;SDS011;5807;51.606;7.624;2022-10-14T02:38:20;26.23;;;19.17;;
11500;SDS011;5807;51.606;7.624;2022-10-14T02:40:47;29.07;;;18.57;;
11500;SDS011;5807;51.606;7.624;2022-10-14T02:43:16;26.57;;;18.80;;
11500;SDS011;5807;51.606;7.624;2022-10-14T02:45:45;27.97;;;19.43;;
11500;SDS011;5807;51.606;7.624;2022-10-14T02:48:11;25.43;;;19.00;;
11500;SDS011;5807;51.606;7.624;2022-10-14T02:50:39;29.50;;;20.00;;
11500;SDS011;5807;51.606;7.624;2022-10-14T02:53:06;28.80;;;19.10;;
11500;SDS011;5807;51.606;7.624;2022-10-14T02:55:33;27.70;;;19.83;;
11500;SDS011;5807;51.606;7.624;2022-10-14T02:58:00;28.27;;;19.40;;
11500;SDS011;5807;51.606;7.624;2022-10-14T03:00:27;29.07;;;22.27;;
11500;SDS011;5807;51.606;7.624;2022-10-14T03:02:55;29.63;;;20.77;;
11500;SDS011;5807;51.606;7.624;2022-10-14T03:05:22;30.40;;;20.17;;
11500;SDS011;5807;51.606;7.624;2022-10-14T03:07:49;32.40;;;20.63;;
11500;SDS011;5807;51.606;7.624;2022-10-14T03:10:16;29.97;;;20.53;;
11500;SDS011;5807;51.606;7.624;2022-10-14T03:12:43;32.67;;;21.40;;
11500;SDS011;5807;51.606;7.624;2022-10-14T03:15:10;29.23;;;20.23;;
11500;SDS011;5807;51.606;7.624;2022-10-14T03:17:37;31.17;;;21.00;;
11500;SDS011;5807;51.606;7.624;2022-10-14T03:20:06;33.83;;;21.83;;
11500;SDS011;5807;51.606;7.624;2022-10-14T03:22:33;32.57;;;21.60;;
11500;SDS011;5807;51.606;7.624;2022-10-14T03:25:00;34.87;;;21.63;;
11500;SDS011;5807;51.606;7.624;2022-10-14T03:27:26;29.00;;;21.07;;
11500;SDS011;5807;51.606;7.624;2022-10-14T03:29:53;32.37;;;21.33;;
11500;SDS011;5807;51.606;7.624;2022-10-14T03:32:20;30.30;;;20.63;;
11500;SDS011;5807;51.606;7.624;2022-10-14T03:34:47;32.93;;;21.97;;
11500;SDS011;5807;51.606;7.624;2022-10-14T03:37:15;31.17;;;21.07;;
11500;SDS011;5807;51.606;7.624;2022-10-14T03:39:42;35.53;;;20.93;;
11500;SDS011;5807;51.606;7.624;2022-10-14T03:42:09;31.73;;;22.00;;
11500;SDS011;5807;51.606;7.624;2022-10-14T03:44:35;28.03;;;19.60;;
11500;SDS011;5807;51.606;7.624;2022-10-14T03:47:02;33.37;;;21.37;;
11500;SDS011;5807;51.606;7.624;2022-10-14T03:49:29;27.93;;;19.57;;
11500;SDS011;5807;51.606;7.624;2022-10-14T03:51:56;31.90;;;19.83;;
11500;SDS011;5807;51.606;7.624;2022-10-14T03:54:24;32.93;;;20.47;;
11500;SDS011;5807;51.606;7.624;2022-10-14T03:56:51;29.97;;;19.53;;
11500;SDS011;5807;51.606;7.624;2022-10-14T03:59:18;27.70;;;19.53;;
11500;SDS011;5807;51.606;7.624;2022-10-14T04:01:45;29.30;;;19.43;;
11500;SDS011;5807;51.606;7.624;2022-10-14T04:04:11;26.27;;;19.90;;
11500;SDS011;5807;51.606;7.624;2022-10-14T04:06:38;26.47;;;18.80;;
11500;SDS011;5807;51.606;7.624;2022-10-14T04:09:05;27.17;;;18.63;;
11500;SDS011;5807;51.606;7.624;2022-10-14T04:11:34;26.93;;;18.43;;
11500;SDS011;5807;51.606;7.624;2022-10-14T04:14:01;26.90;;;17.80;;
11500;SDS011;5807;51.606;7.624;2022-10-14T04:16:27;25.73;;;18.40;;
11500;SDS011;5807;51.606;7.624;2022-10-14T04:18:54;27.93;;;17.97;;
11500;SDS011;5807;51.606;7.624;2022-10-14T04:21:22;29.03;;;18.40;;
11500;SDS011;5807;51.606;7.624;2022-10-14T04:23:49;26.63;;;18.80;;
11500;SDS011;5807;51.606;7.624;2022-10-14T04:26:16;31.10;;;18.37;;
11500;SDS011;5807;51.606;7.624;2022-10-14T04:28:44;27.73;;;19.30;;
11500;SDS011;5807;51.606;7.624;2022-10-14T04:31:12;28.60;;;19.27;;
11500;SDS011;5807;51.606;7.624;2022-10-14T04:33:38;28.00;;;18.30;;
11500;SDS011;5807;51.606;7.624;2022-10-14T04:36:05;26.03;;;16.87;;
11500;SDS011;5807;51.606;7.624;2022-10-14T04:38:33;25.20;;;18.07;;
11500;SDS011;5807;51.606;7.624;2022-10-14T04:41:00;30.93;;;17.87;;
11500;SDS011;5807;51.606;7.624;2022-10-14T04:43:27;26.63;;;17.13;;
11500;SDS011;5807;51.606;7.624;2022-10-14T04:45:55;25.57;;;18.00;;
11500;SDS011;5807;51.606;7.624;2022-10-14T04:48:22;23.43;;;17.60;;
11500;SDS011;5807;51.606;7.624;2022-10-14T04:50:49;25.43;;;17.83;;
11500;SDS011;5807;51.606;7.624;2022-10-14T04:53:16;21.53;;;16.17;;
11500;SDS011;5807;51.606;7.624;2022-10-14T04:55:43;27.57;;;17.90;;
11500;SDS011;5807;51.606;7.624;2022-10-14T04:58:13;22.73;;;16.40;;
11500;SDS011;5807;51.606;7.624;2022-10-14T05:00:40;25.60;;;16.20;;
11500;SDS011;5807;51.606;7.624;2022-10-14T05:03:08;22.50;;;15.73;;
11500;SDS011;5807;51.606;7.624;2022-10-14T05:05:36;21.83;;;15.00;;
11500;SDS011;5807;51.606;7.624;2022-10-14T05:08:02;22.53;;;16.43;;
11500;SDS011;5807;51.606;7.624;2022-10-14T05:10:30;24.10;;;16.23;;
11500;SDS011;5807;51.606;7.624;2022-10-14T05:12:57;25.40;;;16.87;;
11500;SDS011;5807;51.606;7.624;2022-10-14T05:15:23;22.73;;;16.40;;
11500;SDS011;5807;51.606;7.624;2022-10-14T05:17:50;22.37;;;17.20;;
11500;SDS011;5807;51.606;7.624;2022-10-14T05:20:18;23.77;;;15.47;;
11500;SDS011;5807;51.606;7.624;2022-10-14T05:22:45;23.57;;;16.47;;
11500;SDS011;5807;51.606;7.624;2022-10-14T05:25:12;24.20;;;16.37;;
11500;SDS011;5807;51.606;7.624;2022-10-14T05:27:39;22.23;;;15.80;;
11500;SDS011;5807;51.606;7.624;2022-10-14T05:30:06;23.23;;;16.47;;
11500;SDS011;5807;51.606;7.624;2022-10-14T05:32:34;28.93;;;16.87;;
11500;SDS011;5807;51.606;7.624;2022-10-14T05:35:01;20.40;;;15.43;;
11500;SDS011;5807;51.606;7.624;2022-10-14T05:37:30;21.13;;;15.60;;
11500;SDS011;5807;51.606;7.624;2022-10-14T05:39:57;20.50;;;15.30;;
11500;SDS011;5807;51.606;7.624;2022-10-14T05:42:23;23.00;;;16.67;;
11500;SDS011;5807;51.606;7.624;2022-10-14T05:44:50;22.07;;;14.77;;
11500;SDS011;5807;51.606;7.624;2022-10-14T05:47:17;20.53;;;15.10;;
11500;SDS011;5807;51.606;7.624;2022-10-14T05:49:44;20.20;;;15.23;;
11500;SDS011;5807;51.606;7.624;2022-10-14T05:52:10;21.43;;;14.80;;
11500;SDS011;5807;51.606;7.624;2022-10-14T05:54:39;21.37;;;15.07;;
11500;SDS011;5807;51.606;7.624;2022-10-14T05:57:05;24.80;;;15.43;;
11500;SDS011;5807;51.606;7.624;2022-10-14T05:59:32;21.50;;;14.77;;
11500;SDS011;5807;51.606;7.624;2022-10-14T06:01:59;20.90;;;14.23;;
11500;SDS011;5807;51.606;7.624;2022-10-14T06:04:26;16.63;;;12.50;;
11500;SDS011;5807;51.606;7.624;2022-10-14T06:06:53;16.93;;;13.13;;
11500;SDS011;5807;51.606;7.624;2022-10-14T06:09:20;20.23;;;13.97;;
11500;SDS011;5807;51.606;7.624;2022-10-14T06:11:48;22.93;;;14.13;;
11500;SDS011;5807;51.606;7.624;2022-10-14T06:14:15;18.13;;;13.17;;
11500;SDS011;5807;51.606;7.624;2022-10-14T06:16:42;21.10;;;13.57;;
11500;SDS011;5807;51.606;7.624;2022-10-14T06:19:09;19.73;;;12.50;;
11500;SDS011;5807;51.606;7.624;2022-10-14T06:21:36;19.67;;;12.60;;
11500;SDS011;5807;51.606;7.624;2022-10-14T06:24:03;16.77;;;11.57;;
11500;SDS011;5807;51.606;7.624;2022-10-14T06:26:30;18.00;;;12.57;;
11500;SDS011;5807;51.606;7.624;2022-10-14T06:28:58;14.60;;;10.93;;
11500;SDS011;5807;51.606;7.624;2022-10-14T06:31:25;15.87;;;12.17;;
11500;SDS011;5807;51.606;7.624;2022-10-14T06:33:52;16.00;;;11.43;;
11500;SDS011;5807;51.606;7.624;2022-10-14T06:36:18;18.57;;;12.43;;
11500;SDS011;5807;51.606;7.624;2022-10-14T06:38:45;15.37;;;11.43;;
11500;SDS011;5807;51.606;7.624;2022-10-14T06:41:12;24.13;;;14.80;;
11500;SDS011;5807;51.606;7.624;2022-10-14T06:43:39;29.00;;;19.10;;
11500;SDS011;5807;51.606;7.624;2022-10-14T06:46:07;34.57;;;22.37;;
11500;SDS011;5807;51.606;7.624;2022-10-14T06:48:34;44.93;;;23.87;;
11500;SDS011;5807;51.606;7.624;2022-10-14T06:51:01;36.30;;;22.67;;
11500;SDS011;5807;51.606;7.624;2022-10-14T06:53:31;36.57;;;21.57;;
11500;SDS011;5807;51.606;7.624;2022-10-14T06:55:58;33.70;;;21.43;;
11500;SDS011;5807;51.606;7.624;2022-10-14T06:58:27;35.17;;;21.93;;
11500;SDS011;5807;51.606;7.624;2022-10-14T07:00:54;32.97;;;20.07;;
11500;SDS011;5807;51.606;7.624;2022-10-14T07:03:22;33.27;;;19.70;;
11500;SDS011;5807;51.606;7.624;2022-10-14T07:05:49;31.63;;;19.87;;
11500;SDS011;5807;51.606;7.624;2022-10-14T07:08:16;31.47;;;20.00;;
11500;SDS011;5807;51.606;7.624;2022-10-14T07:10:43;25.27;;;17.43;;
11500;SDS011;5807;51.606;7.624;2022-10-14T07:13:12;23.83;;;15.93;;
11500;SDS011;5807;51.606;7.624;2022-10-14T07:15:38;24.53;;;16.03;;
11500;SDS011;5807;51.606;7.624;2022-10-14T07:18:05;23.57;;;18.40;;
11500;SDS011;5807;51.606;7.624;2022-10-14T07:20:34;20.63;;;15.33;;
11500;SDS011;5807;51.606;7.624;2022-10-14T07:23:01;19.37;;;15.43;;
11500;SDS011;5807;51.606;7.624;2022-10-14T07:25:27;15.10;;;11.33;;
11500;SDS011;5807;51.606;7.624;2022-10-14T07:27:56;10.97;;;9.70;;
11500;SDS011;5807;51.606;7.624;2022-10-14T07:30:23;13.37;;;10.30;;
11500;SDS011;5807;51.606;7.624;2022-10-14T07:32:50;10.57;;;8.70;;
11500;SDS011;5807;51.606;7.624;2022-10-14T07:35:17;11.00;;;9.73;;
11500;SDS011;5807;51.606;7.624;2022-10-14T07:37:46;9.93;;;7.90;;
11500;SDS011;5807;51.606;7.624;2022-10-14T07:40:13;8.43;;;7.57;;
11500;SDS011;5807;51.606;7.624;2022-10-14T07:42:40;8.63;;;7.33;;
11500;SDS011;5807;51.606;7.624;2022-10-14T07:45:07;9.50;;;7.33;;
11500;SDS011;5807;51.606;7.624;2022-10-14T07:47:39;8.23;;;7.43;;
11500;SDS011;5807;51.606;7.624;2022-10-14T07:50:07;6.80;;;6.20;;
11500;SDS011;5807;51.606;7.624;2022-10-14T07:52:34;7.37;;;6.20;;
11500;SDS011;5807;51.606;7.624;2022-10-14T07:55:02;6.63;;;6.03;;
11500;SDS011;5807;51.606;7.624;2022-10-14T07:57:29;6.77;;;6.17;;
11500;SDS011;5807;51.606;7.624;2022-10-14T07:59:56;7.17;;;6.30;;
11500;SDS011;5807;51.606;7.624;2022-10-14T08:02:23;6.17;;;5.60;;
11500;SDS011;5807;51.606;7.624;2022-10-14T08:04:51;5.70;;;5.20;;
11500;SDS011;5807;51.606;7.624;2022-10-14T08:07:19;6.17;;;5.63;;
11500;SDS011;5807;51.606;7.624;2022-10-14T08:09:47;4.70;;;4.30;;
11500;SDS011;5807;51.606;7.624;2022-10-14T08:12:15;5.50;;;5.00;;
11500;SDS011;5807;51.606;7.624;2022-10-14T08:14:42;3.97;;;3.67;;
11500;SDS011;5807;51.606;7.624;2022-10-14T08:17:09;4.87;;;4.57;;
11500;SDS011;5807;51.606;7.624;2022-10-14T08:19:36;5.03;;;4.33;;
11500;SDS011;5807;51.606;7.624;2022-10-14T08:22:03;5.20;;;4.80;;
11500;SDS011;5807;51.606;7.624;2022-10-14T08:24:30;5.00;;;4.57;;
11500;SDS011;5807;51.606;7.624;2022-10-14T08:26:57;4.53;;;4.23;;
11500;SDS011;5807;51.606;7.624;2022-10-14T08:29:26;5.13;;;4.67;;
11500;SDS011;5807;51.606;7.624;2022-10-14T08:31:53;4.80;;;4.30;;
11500;SDS011;5807;51.606;7.624;2022-10-14T08:34:20;5.23;;;4.83;;
11500;SDS011;5807;51.606;7.624;2022-10-14T08:36:48;5.47;;;4.90;;
11500;SDS011;5807;51.606;7.624;2022-10-14T08:39:16;4.83;;;4.43;;
11500;SDS011;5807;51.606;7.624;2022-10-14T08:41:48;4.80;;;4.47;;
11500;SDS011;5807;51.606;7.624;2022-10-14T08:44:37;4.80;;;4.40;;
11500;SDS011;5807;51.606;7.624;2022-10-14T08:47:09;5.07;;;3.93;;
11500;SDS011;5807;51.606;7.624;2022-10-14T08:49:42;4.37;;;4.07;;
11500;SDS011;5807;51.606;7.624;2022-10-14T08:52:16;4.77;;;4.37;;
11500;SDS011;5807;51.606;7.624;2022-10-14T08:54:48;4.77;;;4.37;;
11500;SDS011;5807;51.606;7.624;2022-10-14T08:57:20;5.30;;;4.63;;
11500;SDS011;5807;51.606;7.624;2022-10-14T08:59:50;4.63;;;4.33;;
11500;SDS011;5807;51.606;7.624;2022-10-14T09:02:19;5.60;;;5.10;;
11500;SDS011;5807;51.606;7.624;2022-10-14T09:04:55;4.50;;;4.20;;
11500;SDS011;5807;51.606;7.624;2022-10-14T09:07:24;4.37;;;4.07;;
11500;SDS011;5807;51.606;7.624;2022-10-14T09:09:52;5.03;;;4.50;;
11500;SDS011;5807;51.606;7.624;2022-10-14T09:12:24;3.83;;;3.53;;
11500;SDS011;5807;51.606;7.624;2022-10-14T09:14:56;4.40;;;4.10;;
11500;SDS011;5807;51.606;7.624;2022-10-14T09:17:29;3.73;;;3.53;;
11500;SDS011;5807;51.606;7.624;2022-10-14T09:20:01;3.83;;;3.33;;
11500;SDS011;5807;51.606;7.624;2022-10-14T09:22:29;3.30;;;3.10;;
11500;SDS011;5807;51.606;7.624;2022-10-14T09:24:56;2.90;;;2.70;;
11500;SDS011;5807;51.606;7.624;2022-10-14T09:27:25;3.10;;;2.77;;
11500;SDS011;5807;51.606;7.624;2022-10-14T09:29:56;2.67;;;2.47;;
11500;SDS011;5807;51.606;7.624;2022-10-14T09:32:26;2.70;;;2.50;;
11500;SDS011;5807;51.606;7.624;2022-10-14T09:34:55;2.93;;;2.63;;
11500;SDS011;5807;51.606;7.624;2022-10-14T09:37:24;2.27;;;2.17;;
11500;SDS011;5807;51.606;7.624;2022-10-14T09:39:53;2.50;;;2.40;;
11500;SDS011;5807;51.606;7.624;2022-10-14T09:42:25;2.87;;;2.57;;
11500;SDS011;5807;51.606;7.624;2022-10-14T09:45:03;2.53;;;2.33;;
11500;SDS011;5807;51.606;7.624;2022-10-14T09:47:34;2.20;;;2.10;;
11500;SDS011;5807;51.606;7.624;2022-10-14T09:50:06;2.47;;;2.30;;
11500;SDS011;5807;51.606;7.624;2022-10-14T09:52:35;2.50;;;2.40;;
11500;SDS011;5807;51.606;7.624;2022-10-14T09:55:04;2.10;;;2.00;;
11500;SDS011;5807;51.606;7.624;2022-10-14T10:00:44;1.77;;;1.60;;
11500;SDS011;5807;51.606;7.624;2022-10-14T10:03:22;2.27;;;1.90;;
11500;SDS011;5807;51.606;7.624;2022-10-14T10:05:57;2.10;;;2.00;;
11500;SDS011;5807;51.606;7.624;2022-10-14T10:08:26;3.40;;;3.10;;
11500;SDS011;5807;51.606;7.624;2022-10-14T10:10:55;2.83;;;2.30;;
11500;SDS011;5807;51.606;7.624;2022-10-14T10:13:29;2.70;;;2.50;;
11500;SDS011;5807;51.606;7.624;2022-10-14T10:16:00;2.30;;;2.13;;
11500;SDS011;5807;51.606;7.624;2022-10-14T10:18:29;1.50;;;1.50;;
11500;SDS011;5807;51.606;7.624;2022-10-14T10:21:00;1.67;;;1.57;;
11500;SDS011;5807;51.606;7.624;2022-10-14T10:23:30;2.17;;;1.57;;
11500;SDS011;5807;51.606;7.624;2022-10-14T10:26:12;1.83;;;1.73;;
11500;SDS011;5807;51.606;7.624;2022-10-14T10:28:44;1.60;;;1.50;;
11500;SDS011;5807;51.606;7.624;2022-10-14T10:31:18;1.47;;;1.47;;
11500;SDS011;5807;51.606;7.624;2022-10-14T10:33:54;1.70;;;1.60;;
11500;SDS011;5807;51.606;7.624;2022-10-14T10:36:27;1.40;;;1.33;;
11500;SDS011;5807;51.606;7.624;2022-10-14T10:39:00;1.40;;;1.30;;
11500;SDS011;5807;51.606;7.624;2022-10-14T10:41:40;1.70;;;1.27;;
11500;SDS011;5807;51.606;7.624;2022-10-14T10:44:29;1.57;;;1.40;;
11500;SDS011;5807;51.606;7.624;2022-10-14T10:47:09;1.47;;;1.37;;
11500;SDS011;5807;51.606;7.624;2022-10-14T10:50:05;1.57;;;1.53;;
11500;SDS011;5807;51.606;7.624;2022-10-14T10:52:46;1.40;;;1.40;;
11500;SDS011;5807;51.606;7.624;2022-10-14T10:55:23;1.30;;;1.30;;
11500;SDS011;5807;51.606;7.624;2022-10-14T10:57:58;1.23;;;1.13;;
11500;SDS011;5807;51.606;7.624;2022-10-14T11:00:31;1.67;;;1.57;;
11500;SDS011;5807;51.606;7.624;2022-10-14T11:03:14;2.10;;;1.90;;
11500;SDS011;5807;51.606;7.624;2022-10-14T11:05:56;1.33;;;1.33;;
11500;SDS011;5807;51.606;7.624;2022-10-14T11:08:38;1.10;;;1.10;;
11500;SDS011;5807;51.606;7.624;2022-10-14T11:11:33;1.03;;;1.03;;
11500;SDS011;5807;51.606;7.624;2022-10-14T11:14:29;1.10;;;1.10;;
11500;SDS011;5807;51.606;7.624;2022-10-14T11:17:13;0.90;;;0.90;;
11500;SDS011;5807;51.606;7.624;2022-10-14T11:20:06;1.00;;;1.00;;
11500;SDS011;5807;51.606;7.624;2022-10-14T11:22:49;1.47;;;1.00;;
11500;SDS011;5807;51.606;7.624;2022-10-14T11:25:31;1.20;;;1.20;;
11500;SDS011;5807;51.606;7.624;2022-10-14T11:28:09;0.87;;;0.87;;
11500;SDS011;5807;51.606;7.624;2022-10-14T11:30:42;1.00;;;1.00;;
11500;SDS011;5807;51.606;7.624;2022-10-14T11:33:23;1.03;;;1.03;;
11500;SDS011;5807;51.606;7.624;2022-10-14T11:36:04;1.17;;;1.17;;
11500;SDS011;5807;51.606;7.624;2022-10-14T11:38:58;1.33;;;0.90;;
11500;SDS011;5807;51.606;7.624;2022-10-14T11:41:41;1.40;;;1.30;;
11500;SDS011;5807;51.606;7.624;2022-10-14T11:44:18;1.10;;;1.10;;
11500;SDS011;5807;51.606;7.624;2022-10-14T11:46:50;1.27;;;1.27;;
11500;SDS011;5807;51.606;7.624;2022-10-14T11:49:21;1.60;;;1.50;;
11500;SDS011;5807;51.606;7.624;2022-10-14T11:51:54;1.00;;;1.00;;
11500;SDS011;5807;51.606;7.624;2022-10-14T11:54:31;1.20;;;1.20;;
11500;SDS011;5807;51.606;7.624;2022-10-14T11:57:03;1.37;;;1.27;;
11500;SDS011;5807;51.606;7.624;2022-10-14T11:59:37;1.50;;;1.40;;
11500;SDS011;5807;51.606;7.624;2022-10-14T12:02:19;1.63;;;1.53;;
11500;SDS011;5807;51.606;7.624;2022-10-14T12:04:55;1.50;;;1.40;;
11500;SDS011;5807;51.606;7.624;2022-10-14T12:07:29;1.40;;;1.40;;
11500;SDS011;5807;51.606;7.624;2022-10-14T12:10:03;1.70;;;1.60;;
11500;SDS011;5807;51.606;7.624;2022-10-14T12:12:38;2.20;;;2.10;;
11500;SDS011;5807;51.606;7.624;2022-10-14T12:15:12;2.17;;;2.07;;
11500;SDS011;5807;51.606;7.624;2022-10-14T12:17:42;2.00;;;1.90;;
11500;SDS011;5807;51.606;7.624;2022-10-14T12:20:14;2.40;;;2.30;;
11500;SDS011;5807;51.606;7.624;2022-10-14T12:22:49;3.50;;;2.50;;
11500;SDS011;5807;51.606;7.624;2022-10-14T12:25:17;5.03;;;2.40;;
11500;SDS011;5807;51.606;7.624;2022-10-14T12:27:49;3.00;;;2.80;;
11500;SDS011;5807;51.606;7.624;2022-10-14T12:30:27;3.70;;;3.07;;
11500;SDS011;5807;51.606;7.624;2022-10-14T12:33:01;3.90;;;3.40;;
11500;SDS011;5807;51.606;7.624;2022-10-14T12:35:49;5.50;;;4.07;;
11500;SDS011;5807;51.606;7.624;2022-10-14T12:38:20;4.00;;;3.60;;
11500;SDS011;5807;51.606;7.624;2022-10-14T12:40:46;6.07;;;4.40;;
11500;SDS011;5807;51.606;7.624;2022-10-14T12:43:17;5.00;;;4.60;;
11500;SDS011;5807;51.606;7.624;2022-10-14T12:46:12;4.53;;;4.17;;
11500;SDS011;5807;51.606;7.624;2022-10-14T12:48:44;6.83;;;4.20;;
11500;SDS011;5807;51.606;7.624;2022-10-14T12:51:15;5.30;;;4.00;;
11500;SDS011;5807;51.606;7.624;2022-10-14T12:53:49;4.53;;;4.17;;
11500;SDS011;5807;51.606;7.624;2022-10-14T12:56:38;4.87;;;4.17;;
11500;SDS011;5807;51.606;7.624;2022-10-14T12:59:15;6.13;;;4.73;;
11500;SDS011;5807;51.606;7.624;2022-10-14T13:01:52;4.83;;;4.43;;
11500;SDS011;5807;51.606;7.624;2022-10-14T13:04:20;6.93;;;4.33;;
11500;SDS011;5807;51.606;7.624;2022-10-14T13:09:56;4.60;;;4.20;;
11500;SDS011;5807;51.606;7.624;2022-10-14T13:18:39;5.43;;;4.70;;
11500;SDS011;5807;51.606;7.624;2022-10-14T13:24:29;7.17;;;4.57;;
11500;SDS011;5807;51.606;7.624;2022-10-14T13:27:08;5.80;;;4.47;;
11500;SDS011;5807;51.606;7.624;2022-10-14T13:29:51;5.93;;;5.00;;
11500;SDS011;5807;51.606;7.624;2022-10-14T13:32:29;6.40;;;5.30;;
11500;SDS011;5807;51.606;7.624;2022-10-14T13:35:05;6.17;;;4.87;;
11500;SDS011;5807;51.606;7.624;2022-10-14T13:37:52;8.60;;;4.60;;
11500;SDS011;5807;51.606;7.624;2022-10-14T13:40:23;4.70;;;4.30;;
11500;SDS011;5807;51.606;7.624;2022-10-14T13:42:55;7.70;;;5.23;;
11500;SDS011;5807;51.606;7.624;2022-10-14T13:45:30;5.40;;;5.00;;
11500;SDS011;5807;51.606;7.624;2022-10-14T13:47:59;5.60;;;4.93;;
11500;SDS011;5807;51.606;7.624;2022-10-14T13:50:26;5.63;;;5.17;;
11500;SDS011;5807;51.606;7.624;2022-10-14T13:52:58;6.33;;;5.10;;
11500;SDS011;5807;51.606;7.624;2022-10-14T13:55:28;6.07;;;5.03;;
11500;SDS011;5807;51.606;7.624;2022-10-14T13:58:00;5.50;;;5.00;;
11500;SDS011;5807;51.606;7.624;2022-10-14T14:03:27;6.50;;;5.73;;
11500;SDS011;5807;51.606;7.624;2022-10-14T14:05:56;5.63;;;5.10;;
11500;SDS011;5807;51.606;7.624;2022-10-14T14:08:30;6.53;;;5.93;;
11500;SDS011;5807;51.606;7.624;2022-10-14T14:10:59;7.80;;;5.43;;
11500;SDS011;5807;51.606;7.624;2022-10-14T14:13:29;5.47;;;4.97;;
11500;SDS011;5807;51.606;7.624;2022-10-14T14:15:58;5.47;;;4.87;;
11500;SDS011;5807;51.606;7.624;2022-10-14T14:18:26;5.90;;;5.03;;
11500;SDS011;5807;51.606;7.624;2022-10-14T14:20:59;6.50;;;5.90;;
11500;SDS011;5807;51.606;7.624;2022-10-14T14:23:26;6.67;;;5.93;;
11500;SDS011;5807;51.606;7.624;2022-10-14T14:26:09;8.13;;;6.03;;
11500;SDS011;5807;51.606;7.624;2022-10-14T14:28:37;7.47;;;6.13;;
11500;SDS011;5807;51.606;7.624;2022-10-14T14:31:04;6.30;;;5.40;;
11500;SDS011;5807;51.606;7.624;2022-10-14T14:33:33;6.67;;;5.80;;
11500;SDS011;5807;51.606;7.624;2022-10-14T14:36:02;6.80;;;5.80;;
11500;SDS011;5807;51.606;7.624;2022-10-14T14:38:36;8.20;;;5.10;;
11500;SDS011;5807;51.606;7.624;2022-10-14T14:41:04;6.83;;;5.57;;
11500;SDS011;5807;51.606;7.624;2022-10-14T14:43:41;6.47;;;5.87;;
11500;SDS011;5807;51.606;7.624;2022-10-14T14:46:09;7.63;;;6.47;;
11500;SDS011;5807;51.606;7.624;2022-10-14T14:48:43;7.23;;;6.20;;
11500;SDS011;5807;51.606;7.624;2022-10-14T14:51:12;6.93;;;6.20;;
11500;SDS011;5807;51.606;7.624;2022-10-14T14:53:40;6.47;;;5.87;;
11500;SDS011;5807;51.606;7.624;2022-10-14T14:56:07;8.43;;;5.80;;
11500;SDS011;5807;51.606;7.624;2022-10-14T14:58:58;6.83;;;5.77;;
11500;SDS011;5807;51.606;7.624;2022-10-14T15:01:32;6.33;;;5.73;;
11500;SDS011;5807;51.606;7.624;2022-10-14T15:04:00;7.40;;;6.67;;
11500;SDS011;5807;51.606;7.624;2022-10-14T15:06:29;7.17;;;6.03;;
11500;SDS011;5807;51.606;7.624;2022-10-14T15:08:57;7.50;;;6.13;;
11500;SDS011;5807;51.606;7.624;2022-10-14T15:11:32;8.17;;;6.93;;
11500;SDS011;5807;51.606;7.624;2022-10-14T15:14:00;6.73;;;6.03;;
11500;SDS011;5807;51.606;7.624;2022-10-14T15:16:31;7.63;;;6.57;;
11500;SDS011;5807;51.606;7.624;2022-10-14T15:22:07;8.50;;;7.07;;
11500;SDS011;5807;51.606;7.624;2022-10-14T15:27:40;10.17;;;7.20;;
11500;SDS011;5807;51.606;7.624;2022-10-14T15:30:18;8.40;;;6.97;;
11500;SDS011;5807;51.606;7.624;2022-10-14T15:32:51;6.23;;;5.63;;
11500;SDS011;5807;51.606;7.624;2022-10-14T15:35:20;7.50;;;5.57;;
11500;SDS011;5807;51.606;7.624;2022-10-14T15:37:48;6.50;;;5.53;;